createdAt,value
2019-02-02T00:01:03.050Z,31.00
2019-02-02T00:03:44.094Z,28.80
2019-02-02T00:06:24.944Z,29.30
2019-02-02T00:09:05.792Z,28.40
2019-02-02T00:11:46.513Z,29.47
2019-02-02T00:14:27.313Z,28.17
2019-02-02T00:17:08.072Z,31.27
2019-02-02T00:19:48.569Z,29.40
2019-02-02T00:22:29.174Z,28.37
2019-02-02T00:25:10.087Z,28.60
2019-02-02T00:27:50.968Z,29.50
2019-02-02T00:30:31.842Z,28.70
2019-02-02T00:33:12.605Z,29.13
2019-02-02T00:35:53.467Z,31.10
2019-02-02T00:38:34.532Z,30.23
2019-02-02T00:41:15.227Z,28.87
2019-02-02T00:43:55.992Z,31.60
2019-02-02T00:46:36.823Z,31.47
2019-02-02T00:49:17.470Z,33.03
2019-02-02T00:51:57.783Z,31.90
2019-02-02T00:54:38.506Z,33.13
2019-02-02T00:57:19.358Z,32.83
2019-02-02T00:59:59.846Z,30.30
2019-02-02T01:02:40.433Z,31.60
2019-02-02T01:05:21.057Z,33.77
2019-02-02T01:08:01.947Z,31.50
2019-02-02T01:10:42.489Z,33.03
2019-02-02T01:13:23.048Z,36.83
2019-02-02T01:16:03.803Z,31.90
2019-02-02T01:18:44.302Z,32.30
2019-02-02T01:21:25.032Z,31.97
2019-02-02T01:24:05.778Z,32.90
2019-02-02T01:26:46.750Z,33.30
2019-02-02T01:29:27.435Z,33.87
2019-02-02T01:32:27.211Z,32.03
2019-02-02T01:35:07.956Z,33.77
2019-02-02T01:37:48.560Z,33.67
2019-02-02T01:40:29.414Z,32.73
2019-02-02T01:43:09.947Z,33.30
2019-02-02T01:45:50.907Z,30.30
2019-02-02T01:48:31.910Z,32.40
2019-02-02T01:51:12.635Z,32.80
2019-02-02T01:53:53.327Z,33.00
2019-02-02T01:56:34.307Z,33.70
2019-02-02T01:59:15.192Z,32.20
2019-02-02T02:01:56.011Z,33.97
2019-02-02T02:04:37.223Z,34.17
2019-02-02T02:07:17.979Z,33.00
2019-02-02T02:09:58.569Z,32.37
2019-02-02T02:12:39.292Z,32.20
2019-02-02T02:15:20.065Z,31.97
2019-02-02T02:18:01.046Z,32.10
2019-02-02T02:20:41.782Z,34.80
2019-02-02T02:23:22.599Z,33.20
2019-02-02T02:26:03.427Z,34.27
2019-02-02T02:28:44.062Z,33.70
2019-02-02T02:31:24.627Z,33.20
2019-02-02T02:34:05.378Z,32.00
2019-02-02T02:36:46.262Z,33.97
2019-02-02T02:39:26.886Z,36.90
2019-02-02T02:42:07.453Z,36.80
2019-02-02T02:44:47.956Z,33.37
2019-02-02T02:47:28.631Z,34.00
2019-02-02T02:50:09.128Z,35.40
2019-02-02T02:52:49.586Z,35.60
2019-02-02T02:55:30.604Z,33.47
2019-02-02T02:58:11.387Z,35.53
2019-02-02T03:00:52.572Z,32.17
2019-02-02T03:03:33.160Z,32.17
2019-02-02T03:06:13.422Z,33.30
2019-02-02T03:08:54.083Z,31.93
2019-02-02T03:11:34.489Z,34.90
2019-02-02T03:14:15.291Z,33.43
2019-02-02T03:16:56.264Z,34.87
2019-02-02T03:19:36.714Z,33.10
2019-02-02T03:22:17.237Z,33.00
2019-02-02T03:24:57.679Z,34.20
2019-02-02T03:27:38.357Z,35.23
2019-02-02T03:30:18.817Z,32.17
2019-02-02T03:32:59.468Z,33.30
2019-02-02T03:35:40.187Z,34.00
2019-02-02T03:38:20.744Z,33.07
2019-02-02T03:41:01.400Z,36.30
2019-02-02T03:43:42.207Z,33.30
2019-02-02T03:46:23.590Z,35.70
2019-02-02T03:49:05.054Z,34.97
2019-02-02T03:51:45.354Z,31.17
2019-02-02T03:54:25.724Z,36.73
2019-02-02T03:57:06.317Z,37.07
2019-02-02T03:59:46.950Z,34.10
2019-02-02T04:02:27.662Z,34.50
2019-02-02T04:05:08.412Z,34.50
2019-02-02T04:07:48.753Z,36.47
2019-02-02T04:10:29.328Z,33.43
2019-02-02T04:13:09.845Z,34.60
2019-02-02T04:15:50.191Z,36.53
2019-02-02T04:18:31.010Z,34.90
2019-02-02T04:21:11.444Z,35.03
2019-02-02T04:23:52.422Z,32.70
2019-02-02T04:26:32.946Z,35.20
2019-02-02T04:29:17.860Z,33.60
2019-02-02T04:31:56.238Z,38.27
2019-02-02T04:34:37.127Z,34.33
2019-02-02T04:37:17.971Z,38.33
2019-02-02T04:39:58.818Z,37.30
2019-02-02T04:42:39.146Z,34.50
2019-02-02T04:45:19.758Z,35.30
2019-02-02T04:48:00.508Z,36.40
2019-02-02T04:50:41.163Z,36.40
2019-02-02T04:53:21.667Z,35.00
2019-02-02T04:56:02.339Z,36.70
2019-02-02T04:58:42.999Z,36.57
2019-02-02T05:01:23.555Z,35.67
2019-02-02T05:04:04.064Z,34.77
2019-02-02T05:06:45.199Z,38.23
2019-02-02T05:09:25.696Z,35.20
2019-02-02T05:12:06.259Z,36.83
2019-02-02T05:14:46.785Z,35.80
2019-02-02T05:17:27.656Z,34.10
2019-02-02T05:20:08.263Z,35.50
2019-02-02T05:22:48.864Z,35.37
2019-02-02T05:25:29.591Z,34.70
2019-02-02T05:28:10.474Z,39.60
2019-02-02T05:30:50.996Z,37.80
2019-02-02T05:33:32.013Z,34.87
2019-02-02T05:36:12.455Z,37.43
2019-02-02T05:38:53.314Z,39.43
2019-02-02T05:41:33.875Z,35.23
2019-02-02T05:44:14.634Z,37.23
2019-02-02T05:46:55.179Z,38.27
2019-02-02T05:49:35.916Z,35.43
2019-02-02T05:52:16.681Z,35.57
2019-02-02T05:54:57.154Z,36.47
2019-02-02T05:57:37.862Z,37.53
2019-02-02T06:00:20.991Z,38.83
2019-02-02T06:03:01.606Z,37.27
2019-02-02T06:05:42.379Z,37.67
2019-02-02T06:08:22.814Z,35.17
2019-02-02T06:11:03.653Z,37.27
2019-02-02T06:13:44.310Z,39.97
2019-02-02T06:16:25.020Z,39.70
2019-02-02T06:19:05.735Z,37.93
2019-02-02T06:21:48.143Z,37.90
2019-02-02T06:24:29.114Z,39.70
2019-02-02T06:27:09.529Z,36.80
2019-02-02T06:29:50.127Z,35.80
2019-02-02T06:32:30.812Z,37.87
2019-02-02T06:35:11.371Z,37.63
2019-02-02T06:37:52.071Z,37.23
2019-02-02T06:40:32.795Z,37.73
2019-02-02T06:43:13.631Z,39.30
2019-02-02T06:45:54.819Z,40.30
2019-02-02T06:48:35.247Z,38.13
2019-02-02T06:51:16.144Z,40.10
2019-02-02T06:53:56.524Z,39.17
2019-02-02T06:56:37.059Z,39.63
2019-02-02T06:59:17.851Z,38.43
2019-02-02T07:01:58.957Z,39.40
2019-02-02T07:04:39.632Z,37.50
2019-02-02T07:07:20.306Z,38.57
2019-02-02T07:10:00.820Z,40.07
2019-02-02T07:12:41.405Z,36.10
2019-02-02T07:15:21.995Z,39.37
2019-02-02T07:18:02.704Z,40.77
2019-02-02T07:20:43.343Z,38.67
2019-02-02T07:23:23.798Z,37.90
2019-02-02T07:26:04.176Z,38.70
2019-02-02T07:28:45.040Z,38.20
2019-02-02T07:31:26.420Z,40.00
2019-02-02T07:34:07.104Z,39.83
2019-02-02T07:36:47.852Z,42.07
2019-02-02T07:39:28.219Z,40.57
2019-02-02T07:42:09.184Z,40.77
2019-02-02T07:44:50.147Z,38.20
2019-02-02T07:47:30.539Z,40.60
2019-02-02T07:50:11.575Z,42.80
2019-02-02T07:52:52.265Z,39.90
2019-02-02T07:55:32.755Z,40.13
2019-02-02T07:58:13.463Z,40.57
2019-02-02T08:00:54.122Z,39.50
2019-02-02T08:03:34.591Z,43.23
2019-02-02T08:06:15.089Z,43.60
2019-02-02T08:08:56.066Z,41.03
2019-02-02T08:11:37.253Z,40.47
2019-02-02T08:14:18.404Z,41.90
2019-02-02T08:16:58.928Z,40.80
2019-02-02T08:19:39.561Z,41.33
2019-02-02T08:22:20.176Z,44.57
2019-02-02T08:25:00.851Z,53.80
2019-02-02T08:27:41.471Z,57.10
2019-02-02T08:30:21.949Z,46.27
2019-02-02T08:33:02.996Z,42.43
2019-02-02T08:35:43.615Z,45.00
2019-02-02T08:38:24.336Z,41.70
2019-02-02T08:41:05.069Z,45.80
2019-02-02T08:43:45.766Z,44.37
2019-02-02T08:46:26.440Z,46.80
2019-02-02T08:49:07.343Z,44.63
2019-02-02T08:51:48.118Z,44.57
2019-02-02T08:54:28.849Z,44.57
2019-02-02T08:57:09.524Z,42.27
2019-02-02T08:59:50.035Z,50.13
2019-02-02T09:02:30.854Z,49.50
2019-02-02T09:05:11.623Z,46.57
2019-02-02T09:07:52.219Z,42.80
2019-02-02T09:10:33.164Z,48.60
2019-02-02T09:13:14.050Z,47.67
2019-02-02T09:15:54.679Z,47.83
2019-02-02T09:18:35.439Z,45.63
2019-02-02T09:21:16.363Z,45.50
2019-02-02T09:23:57.119Z,81.93
2019-02-02T09:26:37.456Z,47.63
2019-02-02T09:29:18.312Z,45.87
2019-02-02T09:31:58.840Z,47.10
2019-02-02T09:34:40.035Z,46.87
2019-02-02T09:37:20.612Z,46.93
2019-02-02T09:40:01.067Z,46.40
2019-02-02T09:42:41.643Z,46.10
2019-02-02T09:45:22.220Z,46.83
2019-02-02T09:48:03.011Z,46.30
2019-02-02T09:50:43.678Z,45.90
2019-02-02T09:53:24.326Z,45.60
2019-02-02T09:56:05.207Z,42.60
2019-02-02T09:58:45.950Z,49.23
2019-02-02T10:01:28.113Z,50.17
2019-02-02T10:04:09.507Z,50.50
2019-02-02T10:06:50.084Z,48.83
2019-02-02T10:09:30.480Z,46.77
2019-02-02T10:12:11.687Z,48.03
2019-02-02T10:14:52.368Z,48.37
2019-02-02T10:17:33.193Z,50.10
2019-02-02T10:20:13.966Z,51.07
2019-02-02T10:22:54.656Z,52.10
2019-02-02T10:25:35.552Z,48.00
2019-02-02T10:28:16.314Z,50.70
2019-02-02T10:30:57.246Z,49.97
2019-02-02T10:33:37.931Z,46.27
2019-02-02T10:36:20.135Z,48.87
2019-02-02T10:39:00.675Z,51.77
2019-02-02T10:41:41.409Z,51.57
2019-02-02T10:44:22.119Z,51.30
2019-02-02T10:47:02.999Z,52.10
2019-02-02T10:49:43.886Z,52.40
2019-02-02T10:52:25.007Z,50.37
2019-02-02T10:55:05.481Z,52.43
2019-02-02T10:57:46.328Z,49.93
2019-02-02T11:00:27.178Z,51.97
2019-02-02T11:03:08.476Z,50.47
2019-02-02T11:05:48.999Z,53.67
2019-02-02T11:08:29.658Z,51.27
2019-02-02T11:11:10.538Z,49.80
2019-02-02T11:13:51.482Z,53.00
2019-02-02T11:16:32.311Z,50.70
2019-02-02T11:19:12.929Z,51.90
2019-02-02T11:21:53.778Z,56.80
2019-02-02T11:24:34.541Z,53.80
2019-02-02T11:27:15.451Z,53.30
2019-02-02T11:29:56.711Z,52.00
2019-02-02T11:35:33.736Z,55.67
2019-02-02T11:38:14.464Z,56.10
2019-02-02T11:40:55.229Z,54.93
2019-02-02T11:43:35.979Z,59.50
2019-02-02T11:46:16.958Z,57.67
2019-02-02T11:48:57.732Z,56.87
2019-02-02T11:51:38.612Z,57.53
2019-02-02T11:54:19.450Z,51.50
2019-02-02T11:57:00.048Z,55.00
2019-02-02T11:59:40.973Z,53.07
2019-02-02T12:02:21.909Z,52.40
2019-02-02T12:05:02.599Z,54.40
2019-02-02T12:07:43.091Z,53.80
2019-02-02T12:10:23.765Z,52.00
2019-02-02T12:13:04.468Z,50.67
2019-02-02T12:15:45.182Z,51.77
2019-02-02T12:18:25.987Z,52.93
2019-02-02T12:21:06.865Z,50.47
2019-02-02T12:23:47.683Z,52.77
2019-02-02T12:26:28.392Z,50.43
2019-02-02T12:29:09.067Z,54.43
2019-02-02T12:31:50.060Z,54.53
2019-02-02T12:34:30.742Z,53.20
2019-02-02T12:37:11.091Z,54.53
2019-02-02T12:39:51.553Z,56.17
2019-02-02T12:42:32.332Z,55.80
2019-02-02T12:45:12.900Z,55.67
2019-02-02T12:47:53.594Z,55.27
2019-02-02T12:50:34.502Z,54.03
2019-02-02T12:53:15.070Z,52.67
2019-02-02T12:55:56.096Z,55.23
2019-02-02T12:58:36.900Z,56.03
2019-02-02T13:01:18.083Z,56.80
2019-02-02T13:04:01.897Z,55.57
2019-02-02T13:06:42.617Z,52.43
2019-02-02T13:09:23.119Z,57.20
2019-02-02T13:12:03.876Z,56.23
2019-02-02T13:14:44.926Z,54.90
2019-02-02T13:17:25.791Z,55.23
2019-02-02T13:20:06.804Z,55.03
2019-02-02T13:22:48.043Z,54.20
2019-02-02T13:25:28.644Z,54.90
2019-02-02T13:28:09.723Z,54.10
2019-02-02T13:30:50.868Z,55.27
2019-02-02T13:33:31.312Z,54.90
2019-02-02T13:36:11.867Z,53.40
2019-02-02T13:38:52.578Z,53.23
2019-02-02T13:41:33.418Z,52.00
2019-02-02T13:44:14.534Z,54.17
2019-02-02T13:46:55.288Z,51.60
2019-02-02T13:49:35.825Z,49.97
2019-02-02T13:52:16.387Z,48.70
2019-02-02T13:54:57.089Z,48.63
2019-02-02T13:57:37.727Z,49.50
2019-02-02T14:00:18.540Z,52.67
2019-02-02T14:03:03.731Z,50.17
2019-02-02T14:05:42.036Z,49.07
2019-02-02T14:08:22.833Z,49.00
2019-02-02T14:11:03.560Z,49.97
2019-02-02T14:13:44.154Z,45.87
2019-02-02T14:16:24.556Z,50.37
2019-02-02T14:19:05.139Z,47.67
2019-02-02T14:21:45.864Z,47.27
2019-02-02T14:24:26.291Z,44.50
2019-02-02T14:27:07.327Z,51.80
2019-02-02T14:29:48.081Z,49.10
2019-02-02T14:32:28.883Z,50.90
2019-02-02T14:35:08.539Z,51.17
2019-02-02T14:37:56.586Z,52.40
2019-02-02T14:40:44.585Z,47.90
2019-02-02T14:43:32.551Z,47.73
2019-02-02T14:49:14.437Z,53.17
2019-02-02T14:52:02.421Z,53.87
2019-02-02T14:54:50.401Z,54.30
2019-02-02T14:57:38.370Z,54.50
2019-02-02T15:00:46.500Z,56.50
2019-02-02T15:03:34.499Z,54.60
2019-02-02T15:06:22.510Z,50.57
2019-02-02T15:09:10.804Z,51.47
2019-02-02T15:11:59.108Z,51.87
2019-02-02T15:14:39.499Z,52.30
2019-02-02T15:17:20.299Z,50.80
2019-02-02T15:20:00.814Z,51.40
2019-02-02T15:22:41.799Z,53.30
2019-02-02T15:25:22.339Z,53.80
2019-02-02T15:28:03.184Z,57.30
2019-02-02T15:30:44.205Z,53.83
2019-02-02T15:33:24.844Z,51.40
2019-02-02T15:36:05.494Z,53.23
2019-02-02T15:38:46.423Z,54.70
2019-02-02T15:41:27.227Z,55.67
2019-02-02T15:44:07.779Z,53.43
2019-02-02T15:46:49.304Z,53.97
2019-02-02T15:49:30.624Z,53.23
2019-02-02T15:52:11.138Z,54.87
2019-02-02T15:54:51.880Z,53.70
2019-02-02T15:57:33.044Z,52.83
2019-02-02T16:00:13.395Z,50.23
2019-02-02T16:02:54.156Z,51.53
2019-02-02T16:05:34.864Z,53.17
2019-02-02T16:08:15.380Z,48.43
2019-02-02T16:10:55.825Z,49.17
2019-02-02T16:13:36.227Z,47.57
2019-02-02T16:16:17.315Z,50.00
2019-02-02T16:18:57.691Z,50.90
2019-02-02T16:21:38.620Z,51.90
2019-02-02T16:24:19.232Z,51.13
2019-02-02T16:27:00.188Z,52.97
2019-02-02T16:29:40.855Z,56.20
2019-02-02T16:32:21.447Z,52.60
2019-02-02T16:35:02.000Z,54.03
2019-02-02T16:37:42.859Z,51.80
2019-02-02T16:40:23.603Z,53.73
2019-02-02T16:43:04.640Z,53.47
2019-02-02T16:45:45.424Z,53.07
2019-02-02T16:48:26.265Z,56.30
2019-02-02T16:51:07.259Z,55.43
2019-02-02T16:53:47.910Z,54.40
2019-02-02T16:56:29.102Z,53.40
2019-02-02T16:59:09.851Z,52.23
2019-02-02T17:01:51.247Z,50.80
2019-02-02T17:04:31.751Z,52.53
2019-02-02T17:07:12.503Z,49.13
2019-02-02T17:09:53.383Z,53.70
2019-02-02T17:12:33.959Z,54.77
2019-02-02T17:15:15.044Z,54.83
2019-02-02T17:17:55.363Z,54.53
2019-02-02T17:20:36.031Z,58.27
2019-02-02T17:23:16.695Z,52.73
2019-02-02T17:25:57.271Z,57.93
2019-02-02T17:28:37.974Z,60.97
2019-02-02T17:31:18.787Z,60.73
2019-02-02T17:33:59.861Z,60.20
2019-02-02T17:36:40.755Z,59.40
2019-02-02T17:39:21.150Z,60.60
2019-02-02T17:42:03.917Z,57.43
2019-02-02T17:44:44.807Z,60.37
2019-02-02T17:47:25.996Z,57.60
2019-02-02T17:50:06.559Z,59.33
2019-02-02T17:52:47.563Z,52.83
2019-02-02T17:55:28.615Z,55.17
2019-02-02T17:58:09.775Z,52.20
2019-02-02T18:00:53.021Z,55.13
2019-02-02T18:03:34.320Z,56.57
2019-02-02T18:06:14.684Z,53.77
2019-02-02T18:08:55.296Z,53.00
2019-02-02T18:11:35.791Z,53.30
2019-02-02T18:14:16.348Z,52.97
2019-02-02T18:16:57.002Z,57.17
2019-02-02T18:19:37.510Z,52.70
2019-02-02T18:22:18.300Z,54.27
2019-02-02T18:24:58.968Z,52.10
2019-02-02T18:27:39.406Z,53.03
2019-02-02T18:30:20.635Z,53.93
2019-02-02T18:33:01.433Z,54.03
2019-02-02T18:35:42.438Z,56.83
2019-02-02T18:38:22.990Z,53.13
2019-02-02T18:41:04.042Z,55.07
2019-02-02T18:43:44.392Z,51.23
2019-02-02T18:46:25.274Z,54.57
2019-02-02T18:49:06.203Z,51.27
2019-02-02T18:51:47.477Z,55.00
2019-02-02T18:54:28.071Z,49.90
2019-02-02T18:57:08.649Z,51.80
2019-02-02T18:59:49.648Z,53.00
2019-02-02T19:02:30.511Z,54.10
2019-02-02T19:05:11.149Z,50.13
2019-02-02T19:07:52.100Z,55.63
2019-02-02T19:10:32.896Z,54.03
2019-02-02T19:13:13.547Z,54.33
2019-02-02T19:15:54.360Z,51.93
2019-02-02T19:18:35.023Z,51.90
2019-02-02T19:21:15.598Z,51.60
2019-02-02T19:23:55.943Z,53.63
2019-02-02T19:26:36.652Z,59.10
2019-02-02T19:29:17.587Z,50.50
2019-02-02T19:31:58.241Z,54.87
2019-02-02T19:34:39.071Z,58.73
2019-02-02T19:37:21.185Z,58.50
2019-02-02T19:40:02.391Z,60.43
2019-02-02T19:42:43.223Z,60.13
2019-02-02T19:45:24.435Z,64.50
2019-02-02T19:48:05.436Z,64.80
2019-02-02T19:50:45.868Z,60.23
2019-02-02T19:53:26.655Z,61.17
2019-02-02T19:56:06.352Z,59.13
2019-02-02T19:58:54.678Z,62.00
2019-02-02T20:01:42.663Z,61.80
2019-02-02T20:04:30.883Z,61.53
2019-02-02T20:07:18.849Z,60.93
2019-02-02T20:10:07.706Z,63.20
2019-02-02T20:12:48.045Z,66.43
2019-02-02T20:15:28.939Z,64.73
2019-02-02T20:18:10.700Z,64.37
2019-02-02T20:20:51.302Z,68.20
2019-02-02T20:23:34.905Z,67.90
2019-02-02T20:26:14.283Z,66.27
2019-02-02T20:28:54.851Z,70.70
2019-02-02T20:31:35.430Z,67.70
2019-02-02T20:34:15.983Z,63.93
2019-02-02T20:36:57.228Z,67.50
2019-02-02T20:39:37.657Z,64.73
2019-02-02T20:42:18.434Z,65.37
2019-02-02T20:44:58.905Z,67.87
2019-02-02T20:47:39.671Z,63.67
2019-02-02T20:50:20.303Z,69.50
2019-02-02T20:53:01.481Z,69.60
2019-02-02T20:55:42.111Z,69.80
2019-02-02T20:58:22.877Z,66.00
2019-02-02T21:01:03.550Z,68.40
2019-02-02T21:03:44.188Z,69.07
2019-02-02T21:06:25.043Z,70.00
2019-02-02T21:09:05.519Z,76.10
2019-02-02T21:11:56.720Z,70.47
2019-02-02T21:14:29.144Z,70.03
2019-02-02T21:17:09.747Z,72.77
2019-02-02T21:19:50.127Z,68.97
2019-02-02T21:22:30.871Z,71.20
2019-02-02T21:25:11.544Z,67.67
2019-02-02T21:27:52.350Z,69.50
2019-02-02T21:30:33.228Z,74.90
2019-02-02T21:33:14.195Z,71.47
2019-02-02T21:36:03.693Z,71.93
2019-02-02T21:38:37.795Z,78.43
2019-02-02T21:41:18.704Z,80.60
2019-02-02T21:43:59.162Z,76.67
2019-02-02T21:46:39.839Z,78.60
2019-02-02T21:49:20.826Z,73.53
2019-02-02T21:52:01.627Z,70.50
2019-02-02T21:54:42.268Z,71.37
2019-02-02T21:57:23.013Z,69.30
2019-02-02T22:00:03.851Z,70.87
2019-02-02T22:02:44.731Z,70.87
2019-02-02T22:05:25.256Z,70.80
2019-02-02T22:08:05.970Z,71.30
2019-02-02T22:10:47.187Z,73.30
2019-02-02T22:13:27.756Z,69.43
2019-02-02T22:16:08.698Z,71.43
2019-02-02T22:18:50.203Z,71.43
2019-02-02T22:21:31.404Z,68.43
2019-02-02T22:24:12.727Z,66.77
2019-02-02T22:26:53.294Z,72.77
2019-02-02T22:29:33.774Z,73.67
2019-02-02T22:32:14.556Z,74.00
2019-02-02T22:34:55.112Z,77.70
2019-02-02T22:37:35.627Z,71.30
2019-02-02T22:40:16.082Z,74.33
2019-02-02T22:42:56.817Z,78.57
2019-02-02T22:45:37.159Z,77.53
2019-02-02T22:48:18.032Z,79.30
2019-02-02T22:50:58.697Z,81.40
2019-02-02T22:53:39.212Z,75.97
2019-02-02T22:56:20.058Z,77.00
2019-02-02T22:59:00.849Z,74.57
2019-02-02T23:01:42.067Z,79.80
2019-02-02T23:04:22.820Z,78.47
2019-02-02T23:07:03.898Z,76.60
2019-02-02T23:09:45.012Z,76.43
2019-02-02T23:12:25.631Z,80.67
2019-02-02T23:15:06.471Z,78.33
2019-02-02T23:17:47.248Z,80.13
2019-02-02T23:20:28.019Z,77.93
2019-02-02T23:23:08.736Z,87.20
2019-02-02T23:25:49.423Z,90.63
2019-02-02T23:28:30.266Z,88.47
2019-02-02T23:31:11.267Z,90.07
2019-02-02T23:33:53.036Z,85.00
2019-02-02T23:36:33.628Z,86.30
2019-02-02T23:39:14.724Z,86.40
2019-02-02T23:41:55.813Z,87.07
2019-02-02T23:44:36.751Z,97.13
2019-02-02T23:47:17.735Z,90.53
2019-02-02T23:49:58.544Z,93.47
2019-02-02T23:52:38.979Z,90.57
2019-02-02T23:55:19.327Z,88.27
2019-02-02T23:58:00.191Z,93.97
